U14 OCUP - GS
Results

Jury
TD HAIDUK H. AOA
Referee REID J. AOA
Chief of Race BUCKRELL G. OSL
Other Workers
Start Ref DRAKE T. OSL
Finish Ref MOUNT R. OSL
Race Admin THOMSON J. OSL
Chief of Timing WHITE V. OSL
Technical Data
Course Name
Start 458
Finish 290
Vertical Drop
Length
Homologation N/A
1st Run 2nd run
Course Setter WALL CHRIS OSL METZGER P. GP
Number of Gates 26/25 26/25
Homologation N/A N/A
Forerunner 1 SCHARLACH M. OSL SCHARLACH M. OSL
Forerunner 2 ORR J. OSL ORR J. OSL
Forerunner 3 BERTRAM S. OSL BERTRAM S. OSL
Forerunner 4

Applied Penality: 363.47

Weather: COLD, BLOWING SNOW

Snow:HARD PACKED

Temperature Start: -23 Temperature Finish: -19

F:980

Rank Card Bib Name Club YOB Category 1st Run 2nd run Total Time Points
1 82204 100 SEWELL Lily NATAC 04 U14 44.83 40.81 1:25.64 0
2 80725 19 NOAKES Alexis GEORG 04 U14 45.53 40.93 1:26.46 9.38
3 80818 41 HUNTER Sophie OSLER 04 U14 45.87 41.60 1:27.47 20.94
4 78192 12 VAN STRIEN Maxine NATAC 04 U14 45.61 41.94 1:27.55 21.86
5 80732 50 ZEMLA Zoe GEORG 04 U14 46.65 41.08 1:27.73 23.92
6 89490 46 BYERS Abbygail DEVGL 04 U14 46.47 42.48 1:28.95 37.88
7 80816 93 HILLIER Kyra OSLER 04 U14 46.04 43.19 1:29.23 41.08
8 80823 97 MACDONALD Georgia OSLER 04 U14 46.77 42.78 1:29.55 44.74
9 80664 63 ATKINSON Lindsay CRAIG 04 U14 46.80 42.91 1:29.71 46.57
10 81146 49 SYMONS Ava OSLER 04 U14 47.58 42.51 1:30.09 50.92
11 80837 8 STOCK Katie OSLER 04 U14 46.95 43.23 1:30.18 51.95
12 81092 96 CANTONI Laura GEORG 04 U14 47.04 43.15 1:30.19 52.07
13 82199 80 CALDWELL Zoe GEORG 04 U14 47.77 42.55 1:30.32 53.55
14 77127 66 CHAN Lauren JOZOW 04 U14 46.73 43.60 1:30.33 53.67
15 76643 40 AITKEN Kayleigh GLA 04 U14 47.58 42.77 1:30.35 53.9
16 81099 17 EASTWOOD Jordan GEORG 05 U14 47.44 43.07 1:30.51 55.73
17 80730 27 SZIKLAI Lauren GEORG 04 U14 47.16 43.37 1:30.53 55.96
18 80672 5 CRAIG Karina CRAIG 04 U14 47.38 43.23 1:30.61 56.87
19 82448 58 GILDAY Ellen DEVGL 04 U14 47.81 42.90 1:30.71 58.02
20 84837 101 DONNELLY Madison CRAIG 05 U14 46.95 44.05 1:31.00 61.34
21 78422 74 DENOMME Abigail NATAC 04 U14 47.19 43.97 1:31.16 63.17
22 80727 95 ROBERTSON Caroline GEORG 05 U14 48.36 42.82 1:31.18 63.4
23 89489 30 RUSAW Isabella OSLER 04 U14 47.76 43.45 1:31.21 63.74
24 84825 36 HARVEY Marisol GLA 04 U14 48.30 42.94 1:31.24 64.08
25 80667 45 BENSON Claire CRAIG 04 U14 47.85 43.40 1:31.25 64.2
26 80619 102 HAWTIN Elle ALPIN 04 U14 47.19 44.07 1:31.26 64.31
27 81088 83 BIER Charlize GEORG 04 U14 48.07 43.35 1:31.42 66.14
28 82175 72 RUDSON Jordyn ALPIN 04 U14 48.18 43.52 1:31.70 69.35
29 89503 15 MOYSEY Sabine OSLER 04 U14 48.03 43.69 1:31.72 69.57
30 78175 16 GINGERICH Chloe TSCBM 04 U14 48.52 43.44 1:31.96 72.32
31 84757 82 WATT Jennifer OSLER 05 U14 47.66 44.31 1:31.97 72.44
32 79130 67 FREIDEL Lou TSCBM 04 U14 48.21 43.78 1:31.99 72.66
33 81102 37 GATCLIFFE Emma GEORG 05 U14 48.60 43.47 1:32.07 73.58
34 80822 52 LOSSIUS Mia OSLER 04 U14 49.42 42.81 1:32.23 75.41
35 79133 23 HUNTER Ava GEORG 05 U14 48.61 43.78 1:32.39 77.24
36 84846 98 HARGARTEN Laine CALDN 04 U14 48.80 43.88 1:32.68 80.56
37 85457 2 CLARK Elli TSCBM 05 U14 48.33 44.36 1:32.69 80.67
38 85544 70 HUANG Sian CALDN 04 U14 49.37 43.34 1:32.71 80.9
39 85444 47 RAYMOND Tessa CRAIG 05 U14 48.79 44.04 1:32.83 82.28
40 86220 55 OLSEN Natasha CRAIG 05 U14 49.56 43.33 1:32.89 82.96
41 81493 28 MACGREGOR Kate GEORG 04 U14 48.45 44.61 1:33.06 84.91
42 78485 60 LEPAGE Sydney JOZOW 04 U14 48.72 44.43 1:33.15 85.94
43 78188 73 SHAWYER Emma TSCBM 04 U14 49.05 44.25 1:33.30 87.66
43 87072 38 HEISZ Jamie MSFLD 05 U14 47.86 45.44 1:33.30 87.66
45 85296 10 TURNER Sofie CALDN 04 U14 49.63 43.92 1:33.55 90.52
46 81869 22 WALL Gabby ALPIN 05 U14 48.88 44.94 1:33.82 93.61
47 82249 89 OLIVER Rylan BEAVR 04 U14 49.92 43.99 1:33.91 94.64
48 86115 6 FRANKS Taylor OSLER 05 U14 49.27 44.69 1:33.96 95.21
49 76808 59 PERRY Juliette TSCBM 04 U14 49.51 44.51 1:34.02 95.89
50 78689 18 COOK Lucie GLA 04 U14 49.20 44.88 1:34.08 96.58
51 81687 35 CONLIFFE Rachael TSCBM 04 U14 49.79 44.39 1:34.18 97.73
52 76233 34 RUDENKO Larissa ALPIN 05 U14 50.12 44.36 1:34.48 101.16
53 85474 85 TRAN-CHAPMAN Sophie MSFLD 04 U14 49.00 45.51 1:34.51 101.5
53 80812 71 FREYKE Jessica OSLER 04 U14 49.51 45.00 1:34.51 101.5
55 86171 39 IRELAND Evy OSLER 05 U14 49.29 45.32 1:34.61 102.65
56 85777 68 ROBINSON Olivia CRAIG 05 U14 49.59 45.03 1:34.62 102.76
57 79149 75 VINCE Isabella BEAVR 04 U14 49.28 45.43 1:34.71 103.79
58 78408 56 COPNICK Sarah TSCBM 04 U14 49.87 44.93 1:34.80 104.82
59 78427 29 DINARDO Olivia JOZOW 05 U14 50.04 44.84 1:34.88 105.74
60 78747 69 IACOBUCCI Kate BEAVR 04 U14 50.06 45.03 1:35.09 108.14
61 78618 43 WAYLAND Lauren JOZOW 05 U14 49.27 45.89 1:35.16 108.94
62 80726 57 PHELPS Erica GEORG 05 U14 49.91 45.28 1:35.19 109.28
63 80842 94 SHULMAN Ilyssa GLA 05 U14 48.89 46.45 1:35.34 111
63 80495 84 CROXON Grace CRAIG 04 U14 50.29 45.05 1:35.34 111
65 84758 7 WATT Lindsay OSLER 05 U14 50.07 45.65 1:35.72 115.35
66 80689 31 COITO Kate DEVGL 04 U14 49.85 45.89 1:35.74 115.58
67 86213 54 THOMPSON Charlotte ALPIN 05 U14 50.96 44.93 1:35.89 117.29
68 88248 78 WIGGAN Sophie CALDN 05 U14 50.43 45.55 1:35.98 118.32
69 87062 77 KUMMER Kaleigh JOZOW 04 U14 51.24 44.91 1:36.15 120.27
70 78516 24 MURDOCH Antonia JOZOW 05 U14 49.80 46.50 1:36.30 121.99
71 80703 103 SZWEZ Laura DEVGL 04 U14 50.35 45.98 1:36.33 122.33
72 78474 44 KENDELL Trinity CRAIG 04 U14 51.39 44.97 1:36.36 122.67
73 81084 62 VOGEL Eva DEVGL 05 U14 50.94 45.54 1:36.48 124.04
74 80691 20 FRY Kathryn DEVGL 04 U14 54.02 42.48 1:36.50 124.27
75 85462 87 MILLER Megan CRAIG 05 U14 51.20 45.36 1:36.56 124.96
76 87013 64 CANNON Marissa CALDN 05 U14 50.47 46.13 1:36.60 125.42
77 86126 26 MCOUAT Neve OSLER 05 U14 50.87 46.07 1:36.94 129.31
78 74790 81 DIMKINA Kalina ALPIN 05 U14 51.14 45.96 1:37.10 131.14
79 72087 79 RIDE Madison DEVGL 05 U14 50.92 46.51 1:37.43 134.92
80 80369 13 CARTER Sara GLA 05 U14 52.15 45.31 1:37.46 135.26
81 81091 25 BROWN Eliza GEORG 05 U14 51.14 46.50 1:37.64 137.32
82 85314 48 PRIEST Elliette MSFLD 04 U14 51.14 46.79 1:37.93 140.64
83 81070 86 LEAIST Natalie CRAIG 04 U14 51.76 46.24 1:38.00 141.44
84 80684 33 TURNER Christina CRAIG 04 U14 53.72 44.42 1:38.14 143.04
85 80368 4 SAVOY Stephanie CALDN 04 U14 50.81 47.54 1:38.35 145.44
86 80708 105 ADAIR Safia GEORG 05 U14 51.87 46.75 1:38.62 148.53
87 80624 104 MORRISON Jaden ALPIN 05 U14 52.58 47.11 1:39.69 160.78
87 84699 76 BUSCH Sally CRAIG 05 U14 52.23 47.46 1:39.69 160.78
89 76743 88 KALINS Nora TSCBM 05 U14 52.79 47.05 1:39.84 162.49
90 80821 53 LOCHRAN Mackenzie OSLER 04 U14 53.82 46.08 1:39.90 163.18
91 81876 9 THOMSON Reese ALPIN 04 U14 52.69 47.98 1:40.67 171.99
92 87019 32 HUTTON Maggie CALDN 05 U14 53.79 47.43 1:41.22 178.29
93 85738 14 WEAMES Camryn MSFLD 05 U14 54.45 47.23 1:41.68 183.55
94 80370 3 CARTER Spencer GLA 05 U14 52.88 49.04 1:41.92 186.3
95 88241 1 STOPPENBRINK Katie MSFLD 05 U14 54.63 48.38 1:43.01 198.77
96 88417 90 MCINTYRE SALINAS Surine CALDN 05 U14 53.30 49.95 1:43.25 201.52
97 86125 92 O'BRIEN Ciara OSLER 05 U14 54.88 48.51 1:43.39 203.12
98 81137 99 WESSINGER Hailey GEORG 05 U14 56.40 49.08 1:45.48 227.03
999 78803 11 PIRIE Brooke JOZOW 05 U14 DNS DNS 0
999 82207 42 TERNER Amaris GEORG 05 U14 DNS DNS 0
999 78172 51 DREGER Lulu TSCBM 05 U14 DNS DNS 0
999 82190 65 MULCAHY Pippa CRAIG 04 U14 DNS DNS 0
999 86212 91 SINGER Morgan ALPIN 05 U14 DNS DNS 0
999 81113 61 JENKINS Melanie GEORG 04 U14 DSQ - 25 DNS 0
999 81503 21 WHITE Elizabeth GEORG 04 U14 048.20 DNF 0
05/01/2018 / Osler Bluff / NAT18.5116
© MECTiming All Rights Reserverd 2018